createdAt,value
2023-04-27T00:00:18.060Z,48.70
2023-04-27T00:01:18.088Z,48.59
2023-04-27T00:02:18.134Z,48.51
2023-04-27T00:03:18.249Z,48.39
2023-04-27T00:04:18.266Z,48.42
2023-04-27T00:05:18.260Z,47.79
2023-04-27T00:06:18.061Z,47.34
2023-04-27T00:07:18.012Z,47.44
2023-04-27T00:08:18.010Z,47.71
2023-04-27T00:09:17.995Z,48.07
2023-04-27T00:10:17.991Z,48.91
2023-04-27T00:11:17.986Z,49.11
2023-04-27T00:12:17.983Z,48.83
2023-04-27T00:13:17.963Z,48.60
2023-04-27T00:14:17.953Z,48.50
2023-04-27T00:15:17.964Z,48.48
2023-04-27T00:16:18.020Z,48.56
2023-04-27T00:17:17.957Z,48.70
2023-04-27T00:18:17.937Z,49.30
2023-04-27T00:19:17.947Z,48.81
2023-04-27T00:20:17.939Z,48.58
2023-04-27T00:21:17.895Z,48.53
2023-04-27T00:22:17.903Z,49.07
2023-04-27T00:23:17.880Z,47.58
2023-04-27T00:24:17.874Z,47.42
2023-04-27T00:25:17.914Z,48.46
2023-04-27T00:26:17.864Z,48.44
2023-04-27T00:27:17.863Z,48.40
2023-04-27T00:28:17.887Z,48.35
2023-04-27T00:29:17.848Z,48.59
2023-04-27T00:30:17.850Z,48.70
2023-04-27T00:31:17.885Z,49.09
2023-04-27T00:32:17.814Z,49.04
2023-04-27T00:33:17.813Z,49.14
2023-04-27T00:34:17.808Z,48.66
2023-04-27T00:35:17.804Z,48.85
2023-04-27T00:36:17.816Z,48.89
2023-04-27T00:37:17.791Z,48.70
2023-04-27T00:38:17.782Z,48.68
2023-04-27T00:39:17.766Z,48.86
2023-04-27T00:40:17.763Z,48.84
2023-04-27T00:41:17.800Z,48.89
2023-04-27T00:42:17.748Z,48.80
2023-04-27T00:43:17.750Z,48.89
2023-04-27T00:44:17.730Z,48.88
2023-04-27T00:45:17.729Z,48.87
2023-04-27T00:46:17.781Z,48.85
2023-04-27T00:47:17.728Z,49.03
2023-04-27T00:48:17.713Z,48.53
2023-04-27T00:49:17.702Z,48.66
2023-04-27T00:50:17.704Z,48.41
2023-04-27T00:51:17.705Z,48.78
2023-04-27T00:52:17.682Z,49.19
2023-04-27T00:53:17.677Z,49.03
2023-04-27T00:54:17.677Z,48.95
2023-04-27T00:55:17.655Z,48.58
2023-04-27T00:56:17.671Z,48.75
2023-04-27T00:57:17.641Z,48.85
2023-04-27T00:58:17.650Z,48.75
2023-04-27T00:59:17.627Z,48.98
2023-04-27T01:00:17.632Z,49.04
2023-04-27T01:01:17.666Z,49.18
2023-04-27T01:02:17.706Z,49.24
2023-04-27T01:03:17.759Z,49.30
2023-04-27T01:04:17.816Z,49.25
2023-04-27T01:05:17.595Z,49.10
2023-04-27T01:06:17.609Z,49.02
2023-04-27T01:07:17.581Z,49.09
2023-04-27T01:08:17.569Z,48.80
2023-04-27T01:09:17.556Z,48.67
2023-04-27T01:10:17.548Z,48.55
2023-04-27T01:11:17.581Z,48.71
2023-04-27T01:12:17.542Z,48.95
2023-04-27T01:13:17.527Z,49.03
2023-04-27T01:14:17.535Z,49.47
2023-04-27T01:15:17.511Z,49.56
2023-04-27T01:16:17.620Z,48.98
2023-04-27T01:17:17.506Z,48.95
2023-04-27T01:18:17.497Z,49.30
2023-04-27T01:19:17.489Z,48.54
2023-04-27T01:20:17.485Z,48.25
2023-04-27T01:21:17.498Z,49.01
2023-04-27T01:22:17.476Z,49.14
2023-04-27T01:23:17.749Z,48.99
2023-04-27T01:24:17.460Z,48.66
2023-04-27T01:25:17.459Z,48.75
2023-04-27T01:26:17.465Z,48.84
2023-04-27T01:27:17.431Z,49.26
2023-04-27T01:28:17.421Z,49.04
2023-04-27T01:29:17.427Z,48.93
2023-04-27T01:30:17.460Z,49.17
2023-04-27T01:31:17.439Z,49.25
2023-04-27T01:32:17.395Z,48.86
2023-04-27T01:33:17.391Z,48.96
2023-04-27T01:34:17.386Z,49.10
2023-04-27T01:35:17.388Z,48.99
2023-04-27T01:36:17.386Z,49.03
2023-04-27T01:37:17.362Z,49.46
2023-04-27T01:38:17.368Z,49.31
2023-04-27T01:39:17.349Z,49.94
2023-04-27T01:40:17.332Z,48.99
2023-04-27T01:41:17.357Z,49.59
2023-04-27T01:42:17.349Z,49.10
2023-04-27T01:43:17.350Z,49.05
2023-04-27T01:44:17.316Z,49.16
2023-04-27T01:45:17.308Z,48.93
2023-04-27T01:46:17.445Z,48.97
2023-04-27T01:47:17.310Z,49.47
2023-04-27T01:48:18.295Z,49.56
2023-04-27T01:49:17.428Z,49.57
2023-04-27T01:50:17.317Z,49.63
2023-04-27T01:51:17.390Z,49.51
2023-04-27T01:52:17.292Z,49.14
2023-04-27T01:53:17.235Z,48.92
2023-04-27T01:54:18.242Z,48.75
2023-04-27T01:55:17.245Z,48.87
2023-04-27T01:56:17.315Z,48.84
2023-04-27T01:57:17.309Z,48.73
2023-04-27T01:58:17.331Z,49.44
2023-04-27T01:59:17.390Z,49.01
2023-04-27T02:00:17.207Z,49.08
2023-04-27T02:01:17.501Z,48.69
2023-04-27T02:02:17.316Z,49.24
2023-04-27T02:03:17.484Z,49.15
2023-04-27T02:04:18.210Z,50.04
2023-04-27T02:05:17.253Z,49.72
2023-04-27T02:06:17.470Z,49.56
2023-04-27T02:07:17.293Z,49.42
2023-04-27T02:08:17.225Z,49.48
2023-04-27T02:09:17.204Z,49.60
2023-04-27T02:10:17.150Z,49.61
2023-04-27T02:11:17.243Z,49.79
2023-04-27T02:12:17.314Z,49.72
2023-04-27T02:13:17.226Z,49.61
2023-04-27T02:14:17.140Z,50.11
2023-04-27T02:15:17.259Z,49.30
2023-04-27T02:16:17.538Z,49.62
2023-04-27T02:17:17.338Z,49.39
2023-04-27T02:18:17.317Z,49.21
2023-04-27T02:19:17.254Z,49.18
2023-04-27T02:20:17.419Z,49.40
2023-04-27T02:21:17.311Z,49.94
2023-04-27T02:22:17.240Z,49.77
2023-04-27T02:23:18.008Z,49.86
2023-04-27T02:24:17.383Z,50.62
2023-04-27T02:25:17.265Z,50.33
2023-04-27T02:26:17.153Z,50.57
2023-04-27T02:27:17.115Z,49.97
2023-04-27T02:28:17.360Z,49.88
2023-04-27T02:29:17.157Z,49.33
2023-04-27T02:30:17.091Z,49.79
2023-04-27T02:31:17.296Z,51.04
2023-04-27T02:32:17.178Z,50.13
2023-04-27T02:33:17.114Z,50.07
2023-04-27T02:34:17.183Z,49.74
2023-04-27T02:35:16.970Z,49.69
2023-04-27T02:36:17.196Z,50.29
2023-04-27T02:37:16.935Z,50.01
2023-04-27T02:38:16.952Z,49.75
2023-04-27T02:39:17.466Z,49.85
2023-04-27T02:40:16.926Z,49.89
2023-04-27T02:41:16.938Z,49.72
2023-04-27T02:42:16.910Z,50.13
2023-04-27T02:43:16.902Z,49.81
2023-04-27T02:44:16.890Z,50.36
2023-04-27T02:45:16.893Z,50.18
2023-04-27T02:46:16.936Z,50.37
2023-04-27T02:47:16.865Z,49.61
2023-04-27T02:48:16.870Z,49.48
2023-04-27T02:49:16.845Z,49.32
2023-04-27T02:50:16.843Z,49.18
2023-04-27T02:51:16.866Z,49.62
2023-04-27T02:52:16.827Z,49.30
2023-04-27T02:53:16.832Z,49.15
2023-04-27T02:54:16.817Z,49.83
2023-04-27T02:55:16.821Z,49.67
2023-04-27T02:56:16.828Z,49.11
2023-04-27T02:57:16.806Z,49.08
2023-04-27T02:58:16.786Z,49.72
2023-04-27T02:59:16.783Z,49.61
2023-04-27T03:00:16.774Z,49.66
2023-04-27T03:01:16.805Z,49.54
2023-04-27T03:02:16.829Z,49.06
2023-04-27T03:03:16.943Z,49.28
2023-04-27T03:04:16.908Z,49.90
2023-04-27T03:05:16.738Z,49.25
2023-04-27T03:06:16.761Z,49.13
2023-04-27T03:07:16.721Z,49.25
2023-04-27T03:08:16.718Z,49.55
2023-04-27T03:09:16.848Z,50.11
2023-04-27T03:10:16.717Z,49.72
2023-04-27T03:11:16.712Z,50.26
2023-04-27T03:12:16.689Z,50.46
2023-04-27T03:13:16.892Z,50.51
2023-04-27T03:14:16.664Z,51.56
2023-04-27T03:15:16.702Z,51.05
2023-04-27T03:16:16.682Z,51.82
2023-04-27T03:17:16.641Z,52.24
2023-04-27T03:18:16.638Z,52.84
2023-04-27T03:19:16.633Z,52.24
2023-04-27T03:20:16.623Z,51.40
2023-04-27T03:21:16.871Z,50.83
2023-04-27T03:22:16.642Z,50.37
2023-04-27T03:23:16.621Z,50.51
2023-04-27T03:24:16.600Z,50.39
2023-04-27T03:25:16.593Z,50.75
2023-04-27T03:26:16.601Z,51.50
2023-04-27T03:27:16.579Z,51.89
2023-04-27T03:28:16.574Z,51.78
2023-04-27T03:29:16.550Z,52.34
2023-04-27T03:30:16.548Z,52.93
2023-04-27T03:31:16.612Z,54.25
2023-04-27T03:32:16.539Z,52.16
2023-04-27T03:33:16.532Z,51.85
2023-04-27T03:34:16.532Z,51.63
2023-04-27T03:35:16.514Z,51.65
2023-04-27T03:36:16.541Z,51.67
2023-04-27T03:37:16.506Z,50.72
2023-04-27T03:38:16.491Z,50.15
2023-04-27T03:39:16.572Z,49.88
2023-04-27T03:40:16.482Z,50.30
2023-04-27T03:41:16.536Z,50.45
2023-04-27T03:42:16.464Z,50.54
2023-04-27T03:43:16.471Z,50.33
2023-04-27T03:44:16.449Z,50.62
2023-04-27T03:45:16.448Z,50.38
2023-04-27T03:46:16.494Z,50.83
2023-04-27T03:47:16.442Z,50.91
2023-04-27T03:48:16.427Z,50.81
2023-04-27T03:49:16.426Z,51.06
2023-04-27T03:50:16.433Z,50.67
2023-04-27T03:51:16.418Z,51.08
2023-04-27T03:52:16.401Z,51.01
2023-04-27T03:53:16.421Z,50.71
2023-04-27T03:54:16.387Z,50.94
2023-04-27T03:55:16.376Z,50.79
2023-04-27T03:56:16.420Z,50.50
2023-04-27T03:57:16.431Z,50.69
2023-04-27T03:58:16.357Z,50.94
2023-04-27T03:59:16.551Z,51.37
2023-04-27T04:00:16.346Z,51.23
2023-04-27T04:01:16.378Z,50.61
2023-04-27T04:02:16.411Z,50.76
2023-04-27T04:03:16.590Z,50.89
2023-04-27T04:04:16.430Z,50.28
2023-04-27T04:05:16.361Z,50.13
2023-04-27T04:06:16.314Z,50.12
2023-04-27T04:07:16.306Z,49.89
2023-04-27T04:08:16.271Z,50.18
2023-04-27T04:09:17.267Z,50.49
2023-04-27T04:10:16.272Z,50.39
2023-04-27T04:11:16.343Z,50.11
2023-04-27T04:12:16.260Z,49.88
2023-04-27T04:13:16.284Z,50.72
2023-04-27T04:14:16.239Z,51.04
2023-04-27T04:15:16.241Z,51.09
2023-04-27T04:16:16.279Z,51.40
2023-04-27T04:17:16.269Z,51.28
2023-04-27T04:18:16.245Z,52.10
2023-04-27T04:19:16.492Z,51.47
2023-04-27T04:20:16.258Z,51.40
2023-04-27T04:21:16.194Z,51.40
2023-04-27T04:22:16.202Z,51.29
2023-04-27T04:23:16.185Z,52.23
2023-04-27T04:24:16.199Z,51.62
2023-04-27T04:25:16.182Z,51.55
2023-04-27T04:26:16.206Z,51.66
2023-04-27T04:27:16.156Z,51.34
2023-04-27T04:28:16.262Z,51.15
2023-04-27T04:29:16.489Z,51.15
2023-04-27T04:30:16.153Z,52.35
2023-04-27T04:31:16.267Z,52.19
2023-04-27T04:32:16.154Z,52.00
2023-04-27T04:33:17.368Z,52.59
2023-04-27T04:34:16.162Z,52.18
2023-04-27T04:35:16.157Z,52.01
2023-04-27T04:36:16.200Z,52.12
2023-04-27T04:37:16.110Z,52.40
2023-04-27T04:38:16.118Z,51.47
2023-04-27T04:39:16.530Z,52.27
2023-04-27T04:40:16.133Z,52.66
2023-04-27T04:41:16.077Z,51.61
2023-04-27T04:42:16.240Z,51.01
2023-04-27T04:43:16.245Z,50.74
2023-04-27T04:44:16.167Z,51.87
2023-04-27T04:45:16.098Z,50.73
2023-04-27T04:46:16.225Z,51.60
2023-04-27T04:47:16.168Z,50.46
2023-04-27T04:48:16.051Z,51.21
2023-04-27T04:49:16.328Z,50.91
2023-04-27T04:50:16.079Z,52.17
2023-04-27T04:51:16.254Z,51.00
2023-04-27T04:52:16.093Z,51.99
2023-04-27T04:53:16.864Z,51.96
2023-04-27T04:54:16.150Z,51.58
2023-04-27T04:55:16.113Z,51.82
2023-04-27T04:56:16.049Z,51.19
2023-04-27T04:57:16.043Z,51.53
2023-04-27T04:58:16.065Z,51.78
2023-04-27T04:59:16.163Z,52.66
2023-04-27T05:00:16.250Z,52.44
2023-04-27T05:01:16.112Z,51.53
2023-04-27T05:02:16.147Z,52.08
2023-04-27T05:03:16.323Z,51.82
2023-04-27T05:04:16.240Z,51.39
2023-04-27T05:05:16.124Z,50.90
2023-04-27T05:06:16.016Z,51.34
2023-04-27T05:07:17.802Z,50.36
2023-04-27T05:08:16.034Z,50.84
2023-04-27T05:09:16.060Z,50.76
2023-04-27T05:10:16.056Z,51.03
2023-04-27T05:11:15.849Z,51.17
2023-04-27T05:12:16.015Z,51.23
2023-04-27T05:13:15.836Z,50.86
2023-04-27T05:14:15.812Z,51.92
2023-04-27T05:15:15.814Z,51.39
2023-04-27T05:16:15.832Z,51.02
2023-04-27T05:17:15.839Z,50.76
2023-04-27T05:18:15.806Z,51.51
2023-04-27T05:19:15.983Z,50.74
2023-04-27T05:20:16.154Z,51.47
2023-04-27T05:21:15.758Z,51.48
2023-04-27T05:22:15.786Z,51.00
2023-04-27T05:23:15.749Z,50.67
2023-04-27T05:24:15.747Z,51.99
2023-04-27T05:25:15.735Z,52.26
2023-04-27T05:26:15.746Z,50.99
2023-04-27T05:27:15.748Z,50.76
2023-04-27T05:28:15.735Z,51.22
2023-04-27T05:29:16.036Z,50.17
2023-04-27T05:30:15.697Z,50.75
2023-04-27T05:31:15.708Z,51.15
2023-04-27T05:32:15.706Z,51.65
2023-04-27T05:33:15.749Z,51.45
2023-04-27T05:34:15.669Z,51.04
2023-04-27T05:35:15.773Z,50.76
2023-04-27T05:36:15.718Z,50.74
2023-04-27T05:37:15.734Z,50.20
2023-04-27T05:38:15.640Z,50.18
2023-04-27T05:39:15.828Z,51.35
2023-04-27T05:40:15.631Z,50.94
2023-04-27T05:41:15.629Z,50.41
2023-04-27T05:42:15.647Z,50.77
2023-04-27T05:43:15.620Z,50.30
2023-04-27T05:44:15.605Z,49.69
2023-04-27T05:45:15.603Z,49.70
2023-04-27T05:46:15.615Z,50.62
2023-04-27T05:47:16.616Z,51.46
2023-04-27T05:48:15.589Z,51.99
2023-04-27T05:49:15.833Z,50.74
2023-04-27T05:50:15.574Z,50.61
2023-04-27T05:51:15.582Z,51.95
2023-04-27T05:52:15.577Z,51.42
2023-04-27T05:53:15.542Z,53.32
2023-04-27T05:54:15.534Z,52.52
2023-04-27T05:55:16.542Z,52.03
2023-04-27T05:56:15.571Z,51.65
2023-04-27T05:57:15.565Z,50.60
2023-04-27T05:58:16.512Z,52.38
2023-04-27T05:59:15.993Z,51.99
2023-04-27T06:00:15.570Z,49.67
2023-04-27T06:01:15.504Z,49.96
2023-04-27T06:02:15.686Z,48.98
2023-04-27T06:03:15.627Z,49.75
2023-04-27T06:04:15.682Z,50.79
2023-04-27T06:05:15.539Z,49.64
2023-04-27T06:06:15.455Z,49.45
2023-04-27T06:08:15.442Z,49.80
2023-04-27T06:09:15.708Z,49.93
2023-04-27T06:10:15.430Z,49.49
2023-04-27T06:11:15.428Z,49.37
2023-04-27T06:12:15.435Z,48.76
2023-04-27T06:13:15.408Z,48.89
2023-04-27T06:14:15.402Z,48.99
2023-04-27T06:15:15.418Z,50.08
2023-04-27T06:16:15.421Z,49.42
2023-04-27T06:17:15.390Z,49.49
2023-04-27T06:18:15.419Z,49.95
2023-04-27T06:19:15.625Z,50.03
2023-04-27T06:20:15.390Z,49.97
2023-04-27T06:21:15.379Z,49.23
2023-04-27T06:22:15.382Z,49.87
2023-04-27T06:23:15.372Z,50.04
2023-04-27T06:24:15.326Z,49.72
2023-04-27T06:25:15.326Z,49.75
2023-04-27T06:26:15.320Z,49.17
2023-04-27T06:27:15.379Z,48.87
2023-04-27T06:28:15.299Z,49.68
2023-04-27T06:29:15.557Z,49.46
2023-04-27T06:30:15.278Z,49.27
2023-04-27T06:31:15.370Z,48.54
2023-04-27T06:32:15.292Z,48.90
2023-04-27T06:33:15.269Z,49.98
2023-04-27T06:34:15.262Z,49.28
2023-04-27T06:35:15.257Z,49.05
2023-04-27T06:36:15.243Z,48.95
2023-04-27T06:37:15.443Z,48.49
2023-04-27T06:38:15.244Z,49.17
2023-04-27T06:39:15.525Z,49.04
2023-04-27T06:40:15.222Z,49.94
2023-04-27T06:41:15.323Z,49.77
2023-04-27T06:42:15.221Z,50.15
2023-04-27T06:43:15.200Z,49.74
2023-04-27T06:44:15.191Z,49.54
2023-04-27T06:45:15.187Z,49.29
2023-04-27T06:46:15.208Z,50.44
2023-04-27T06:47:15.190Z,49.52
2023-04-27T06:48:15.199Z,51.22
2023-04-27T06:49:15.538Z,49.53
2023-04-27T06:50:15.180Z,49.61
2023-04-27T06:51:15.154Z,49.37
2023-04-27T06:52:15.158Z,49.82
2023-04-27T06:53:15.128Z,49.50
2023-04-27T06:54:15.124Z,49.23
2023-04-27T06:55:15.203Z,49.16
2023-04-27T06:56:15.096Z,48.64
2023-04-27T06:57:15.125Z,49.50
2023-04-27T06:58:15.102Z,49.02
2023-04-27T06:59:15.373Z,49.99
2023-04-27T07:00:15.151Z,48.01
2023-04-27T07:01:15.079Z,49.17
2023-04-27T07:02:15.115Z,49.39
2023-04-27T07:03:15.243Z,49.56
2023-04-27T07:04:15.141Z,49.44
2023-04-27T07:05:15.049Z,49.39
2023-04-27T07:06:15.051Z,48.55
2023-04-27T07:07:15.063Z,49.24
2023-04-27T07:08:15.054Z,48.93
2023-04-27T07:09:26.641Z,49.00
2023-04-27T07:10:17.018Z,49.18
2023-04-27T07:11:15.016Z,48.94
2023-04-27T07:12:15.016Z,49.09
2023-04-27T07:13:15.152Z,49.15
2023-04-27T07:14:14.976Z,49.69
2023-04-27T07:15:14.973Z,49.42
2023-04-27T07:16:15.028Z,49.19
2023-04-27T07:17:14.980Z,49.37
2023-04-27T07:18:14.988Z,49.06
2023-04-27T07:19:15.181Z,48.85
2023-04-27T07:20:14.937Z,48.37
2023-04-27T07:21:14.927Z,47.78
2023-04-27T07:22:14.949Z,48.98
2023-04-27T07:23:14.925Z,49.85
2023-04-27T07:24:14.922Z,48.85
2023-04-27T07:25:14.899Z,48.14
2023-04-27T07:26:14.905Z,48.64
2023-04-27T07:27:14.913Z,49.07
2023-04-27T07:28:14.885Z,49.83
2023-04-27T07:29:26.613Z,49.27
2023-04-27T07:30:16.885Z,48.20
2023-04-27T07:31:14.886Z,49.05
2023-04-27T07:32:14.963Z,50.38
2023-04-27T07:33:14.848Z,49.05
2023-04-27T07:34:14.831Z,50.04
2023-04-27T07:35:14.827Z,48.89
2023-04-27T07:36:14.831Z,48.78
2023-04-27T07:37:14.849Z,48.85
2023-04-27T07:38:14.848Z,48.53
2023-04-27T07:39:15.055Z,49.30
2023-04-27T07:40:14.838Z,49.24
2023-04-27T07:41:14.793Z,48.92
2023-04-27T07:42:14.806Z,49.03
2023-04-27T07:43:14.831Z,49.09
2023-04-27T07:44:14.791Z,49.40
2023-04-27T07:45:14.849Z,50.71
2023-04-27T07:46:14.871Z,48.77
2023-04-27T07:47:14.821Z,49.23
2023-04-27T07:48:14.794Z,50.01
2023-04-27T07:49:15.205Z,49.33
2023-04-27T07:50:14.729Z,49.53
2023-04-27T07:51:14.724Z,49.09
2023-04-27T07:52:14.742Z,49.82
2023-04-27T07:53:14.716Z,49.04
2023-04-27T07:54:14.723Z,49.26
2023-04-27T07:55:14.685Z,49.12
2023-04-27T07:56:14.679Z,49.28
2023-04-27T07:57:14.717Z,48.79
2023-04-27T07:58:14.665Z,49.08
2023-04-27T07:59:15.061Z,48.74
2023-04-27T08:00:14.665Z,48.56
2023-04-27T08:01:14.768Z,48.46
2023-04-27T08:02:19.222Z,49.97
2023-04-27T08:03:16.827Z,51.41
2023-04-27T08:04:15.016Z,49.60
2023-04-27T08:05:15.144Z,49.12
2023-04-27T08:06:14.989Z,48.92
2023-04-27T08:07:15.008Z,49.42
2023-04-27T08:08:14.909Z,49.33
2023-04-27T08:09:14.897Z,49.36
2023-04-27T08:10:14.590Z,48.78
2023-04-27T08:11:14.565Z,49.56
2023-04-27T08:12:14.564Z,48.85
2023-04-27T08:13:14.588Z,49.57
2023-04-27T08:14:14.556Z,49.79
2023-04-27T08:15:14.557Z,49.96
2023-04-27T08:16:14.572Z,49.82
2023-04-27T08:17:14.545Z,49.43
2023-04-27T08:18:14.625Z,49.49
2023-04-27T08:19:14.793Z,50.85
2023-04-27T08:20:14.508Z,50.13
2023-04-27T08:21:14.524Z,50.66
2023-04-27T08:22:14.504Z,49.89
2023-04-27T08:23:14.495Z,49.62
2023-04-27T08:24:14.482Z,49.31
2023-04-27T08:25:14.473Z,49.74
2023-04-27T08:26:14.480Z,50.07
2023-04-27T08:27:14.549Z,50.56
2023-04-27T08:28:14.479Z,50.11
2023-04-27T08:29:26.382Z,50.11
2023-04-27T08:30:16.444Z,50.12
2023-04-27T08:31:14.465Z,50.54
2023-04-27T08:32:14.430Z,49.98
2023-04-27T08:33:14.596Z,49.93
2023-04-27T08:34:14.404Z,50.17
2023-04-27T08:35:14.405Z,49.29
2023-04-27T08:36:14.406Z,50.44
2023-04-27T08:37:14.394Z,49.90
2023-04-27T08:38:14.412Z,49.89
2023-04-27T08:39:14.686Z,49.73
2023-04-27T08:40:14.368Z,49.27
2023-04-27T08:41:21.496Z,50.14
2023-04-27T08:42:16.359Z,49.89
2023-04-27T08:43:14.363Z,50.35
2023-04-27T08:44:14.353Z,49.93
2023-04-27T08:45:14.340Z,50.69
2023-04-27T08:46:14.377Z,50.38
2023-04-27T08:47:14.342Z,50.03
2023-04-27T08:48:14.361Z,49.81
2023-04-27T08:49:16.573Z,49.91
2023-04-27T08:50:15.306Z,49.57
2023-04-27T08:51:14.290Z,49.39
2023-04-27T08:52:14.287Z,49.02
2023-04-27T08:53:14.313Z,49.16
2023-04-27T08:54:14.272Z,49.95
2023-04-27T08:55:16.460Z,49.84
2023-04-27T08:56:15.263Z,49.29
2023-04-27T08:57:14.278Z,49.20
2023-04-27T08:58:14.263Z,49.07
2023-04-27T08:59:14.605Z,49.65
2023-04-27T09:00:14.251Z,52.03
2023-04-27T09:01:14.229Z,52.14
2023-04-27T09:02:14.296Z,52.56
2023-04-27T09:03:14.370Z,51.69
2023-04-27T09:04:14.410Z,52.65
2023-04-27T09:05:14.410Z,51.58
2023-04-27T09:06:14.415Z,52.25
2023-04-27T09:07:14.196Z,52.53
2023-04-27T09:08:14.210Z,51.61
2023-04-27T09:09:14.454Z,50.74
2023-04-27T09:10:14.166Z,51.58
2023-04-27T09:11:15.157Z,51.19
2023-04-27T09:12:14.152Z,51.55
2023-04-27T09:13:14.170Z,49.57
2023-04-27T09:14:14.144Z,48.77
2023-04-27T09:15:14.136Z,48.91
2023-04-27T09:16:14.239Z,48.78
2023-04-27T09:17:14.128Z,48.18
2023-04-27T09:18:14.145Z,48.50
2023-04-27T09:19:14.281Z,48.74
2023-04-27T09:20:14.102Z,49.36
2023-04-27T09:21:14.173Z,49.83
2023-04-27T09:22:14.095Z,49.56
2023-04-27T09:23:14.105Z,49.49
2023-04-27T09:24:14.084Z,49.09
2023-04-27T09:25:14.089Z,49.46
2023-04-27T09:26:14.062Z,49.18
2023-04-27T09:27:14.056Z,48.45
2023-04-27T09:28:14.059Z,48.41
2023-04-27T09:29:14.274Z,48.74
2023-04-27T09:30:14.061Z,48.58
2023-04-27T09:31:14.065Z,48.80
2023-04-27T09:32:16.098Z,48.53
2023-04-27T09:33:14.124Z,47.87
2023-04-27T09:34:14.002Z,48.01
2023-04-27T09:35:14.009Z,48.52
2023-04-27T09:36:14.007Z,47.94
2023-04-27T09:37:14.010Z,48.97
2023-04-27T09:38:15.350Z,48.53
2023-04-27T09:39:14.205Z,48.41
2023-04-27T09:40:13.965Z,48.81
2023-04-27T09:41:13.951Z,48.52
2023-04-27T09:42:13.995Z,49.16
2023-04-27T09:43:13.955Z,48.77
2023-04-27T09:44:13.961Z,48.53
2023-04-27T09:45:13.946Z,48.24
2023-04-27T09:46:13.977Z,47.88
2023-04-27T09:47:13.965Z,48.49
2023-04-27T09:48:13.908Z,48.01
2023-04-27T09:49:14.071Z,48.89
2023-04-27T09:50:13.886Z,48.94
2023-04-27T09:51:13.888Z,49.29
2023-04-27T09:52:13.904Z,48.07
2023-04-27T09:53:13.895Z,48.21
2023-04-27T09:54:13.866Z,48.44
2023-04-27T09:55:13.858Z,48.01
2023-04-27T09:56:13.861Z,48.05
2023-04-27T09:57:13.861Z,48.64
2023-04-27T09:58:13.841Z,47.80
2023-04-27T09:59:14.084Z,49.39
2023-04-27T10:00:13.838Z,48.37
2023-04-27T10:01:13.854Z,47.62
2023-04-27T10:02:24.231Z,48.23
2023-04-27T10:03:15.878Z,47.63
2023-04-27T10:04:13.981Z,48.01
2023-04-27T10:05:13.829Z,48.01
2023-04-27T10:06:13.816Z,49.22
2023-04-27T10:07:13.799Z,47.85
2023-04-27T10:08:13.794Z,48.24
2023-04-27T10:09:13.988Z,47.85
2023-04-27T10:10:13.755Z,48.15
2023-04-27T10:11:13.777Z,48.16
2023-04-27T10:12:13.759Z,48.21
2023-04-27T10:13:13.740Z,47.84
2023-04-27T10:14:13.736Z,47.74
2023-04-27T10:15:13.733Z,47.43
2023-04-27T10:16:13.723Z,48.27
2023-04-27T10:17:13.770Z,47.28
2023-04-27T10:18:13.724Z,47.81
2023-04-27T10:19:14.013Z,48.60
2023-04-27T10:20:13.710Z,47.00
2023-04-27T10:21:13.691Z,47.00
2023-04-27T10:22:13.699Z,46.55
2023-04-27T10:23:13.679Z,46.49
2023-04-27T10:24:13.673Z,47.25
2023-04-27T10:25:13.688Z,47.66
2023-04-27T10:26:13.720Z,47.62
2023-04-27T10:27:13.684Z,46.70
2023-04-27T10:28:13.641Z,48.03
2023-04-27T10:29:13.770Z,46.09
2023-04-27T10:30:13.705Z,45.73
2023-04-27T10:31:13.653Z,45.74
2023-04-27T10:32:13.646Z,44.53
2023-04-27T10:33:13.627Z,44.68
2023-04-27T10:34:13.599Z,44.41
2023-04-27T10:35:13.600Z,45.20
2023-04-27T10:36:13.611Z,45.87
2023-04-27T10:37:13.601Z,44.91
2023-04-27T10:38:13.597Z,45.35
2023-04-27T10:39:13.960Z,45.74
2023-04-27T10:40:13.574Z,46.90
2023-04-27T10:41:13.590Z,45.03
2023-04-27T10:42:13.561Z,44.35
2023-04-27T10:43:13.647Z,44.68
2023-04-27T10:44:13.617Z,45.88
2023-04-27T10:45:14.448Z,42.85
2023-04-27T10:46:13.574Z,43.44
2023-04-27T10:47:13.593Z,43.53
2023-04-27T10:48:13.578Z,42.51
2023-04-27T10:49:13.784Z,42.37
2023-04-27T10:50:13.538Z,44.66
2023-04-27T10:51:13.495Z,42.41
2023-04-27T10:52:13.504Z,43.61
2023-04-27T10:53:13.502Z,44.79
2023-04-27T10:54:13.513Z,42.88
2023-04-27T10:55:13.470Z,42.82
2023-04-27T10:56:13.456Z,42.74
2023-04-27T10:57:13.480Z,43.10
2023-04-27T10:58:13.462Z,42.36
2023-04-27T10:59:13.589Z,42.51
2023-04-27T11:00:16.252Z,44.25
2023-04-27T11:01:13.471Z,42.42
2023-04-27T11:02:13.747Z,42.92
2023-04-27T11:03:14.631Z,44.05
2023-04-27T11:04:13.642Z,42.77
2023-04-27T11:05:13.441Z,42.99
2023-04-27T11:06:13.403Z,43.64
2023-04-27T11:07:13.448Z,43.86
2023-04-27T11:08:13.383Z,43.94
2023-04-27T11:09:13.402Z,44.68
2023-04-27T11:10:13.381Z,45.26
2023-04-27T11:11:14.397Z,47.34
2023-04-27T11:12:15.237Z,46.11
2023-04-27T11:13:13.367Z,46.13
2023-04-27T11:14:13.553Z,45.74
2023-04-27T11:15:13.316Z,46.38
2023-04-27T11:16:13.386Z,46.23
2023-04-27T11:17:13.329Z,46.04
2023-04-27T11:18:13.306Z,45.78
2023-04-27T11:19:13.534Z,45.53
2023-04-27T11:20:13.282Z,45.64
2023-04-27T11:21:13.297Z,46.41
2023-04-27T11:22:13.882Z,45.33
2023-04-27T11:23:13.853Z,44.94
2023-04-27T11:24:15.324Z,47.02
2023-04-27T11:25:14.265Z,45.33
2023-04-27T11:26:13.240Z,45.03
2023-04-27T11:27:13.253Z,46.00
2023-04-27T11:28:13.224Z,45.99
2023-04-27T11:29:13.371Z,45.43
2023-04-27T11:30:13.209Z,45.16
2023-04-27T11:31:13.263Z,44.89
2023-04-27T11:32:13.210Z,45.55
2023-04-27T11:33:13.255Z,45.24
2023-04-27T11:35:13.169Z,45.15
2023-04-27T11:36:14.163Z,44.34
2023-04-27T11:37:18.298Z,44.52
2023-04-27T11:38:15.141Z,44.11
2023-04-27T11:39:13.316Z,45.13
2023-04-27T11:40:13.147Z,44.82
2023-04-27T11:41:13.142Z,44.61
2023-04-27T11:42:13.159Z,43.76
2023-04-27T11:43:13.147Z,43.87
2023-04-27T11:44:13.107Z,42.81
2023-04-27T11:45:13.107Z,42.87
2023-04-27T11:46:13.168Z,44.19
2023-04-27T11:47:13.102Z,43.67
2023-04-27T11:48:13.094Z,43.09
2023-04-27T11:49:13.298Z,43.98
2023-04-27T11:50:13.064Z,44.26
2023-04-27T11:51:13.074Z,44.00
2023-04-27T11:52:13.061Z,43.84
2023-04-27T11:53:13.054Z,44.28
2023-04-27T11:54:13.263Z,43.42
2023-04-27T11:55:13.044Z,43.17
2023-04-27T11:56:13.028Z,43.23
2023-04-27T11:57:13.023Z,42.57
2023-04-27T11:58:13.077Z,44.95
2023-04-27T11:59:13.183Z,43.42
2023-04-27T12:00:12.985Z,43.17
2023-04-27T12:01:13.004Z,44.14
2023-04-27T12:02:13.000Z,44.48
2023-04-27T12:03:13.430Z,43.54
2023-04-27T12:04:13.321Z,43.33
2023-04-27T12:05:13.683Z,42.71
2023-04-27T12:06:31.861Z,42.91
2023-04-27T12:07:14.981Z,44.86
2023-04-27T12:08:13.036Z,44.40
2023-04-27T12:09:12.927Z,46.36
2023-04-27T12:10:12.923Z,43.34
2023-04-27T12:11:12.931Z,43.38
2023-04-27T12:12:12.921Z,43.68
2023-04-27T12:13:13.079Z,42.53
2023-04-27T12:14:13.132Z,42.83
2023-04-27T12:15:12.902Z,43.37
2023-04-27T12:16:12.887Z,43.48
2023-04-27T12:17:13.000Z,43.11
2023-04-27T12:18:12.910Z,43.23
2023-04-27T12:19:12.888Z,44.07
2023-04-27T12:20:12.947Z,45.24
2023-04-27T12:21:12.857Z,43.43
2023-04-27T12:22:12.895Z,43.34
2023-04-27T12:23:12.841Z,43.89
2023-04-27T12:24:13.237Z,43.47
2023-04-27T12:25:12.846Z,42.69
2023-04-27T12:26:14.996Z,43.00
2023-04-27T12:27:13.820Z,43.85
2023-04-27T12:28:12.833Z,43.15
2023-04-27T12:29:12.785Z,44.37
2023-04-27T12:30:12.884Z,43.37
2023-04-27T12:31:12.781Z,42.33
2023-04-27T12:32:12.769Z,42.59
2023-04-27T12:33:13.228Z,43.29
2023-04-27T12:34:12.988Z,43.27
2023-04-27T12:35:12.749Z,44.74
2023-04-27T12:36:12.750Z,44.68
2023-04-27T12:37:12.762Z,45.27
2023-04-27T12:38:12.741Z,44.71
2023-04-27T12:39:12.735Z,43.25
2023-04-27T12:40:12.758Z,44.41
2023-04-27T12:41:12.696Z,43.79
2023-04-27T12:42:12.698Z,43.78
2023-04-27T12:43:12.758Z,42.02
2023-04-27T12:44:13.124Z,42.57
2023-04-27T12:45:12.685Z,42.73
2023-04-27T12:46:12.806Z,43.37
2023-04-27T12:47:20.083Z,44.42
2023-04-27T12:48:16.188Z,44.21
2023-04-27T12:49:12.659Z,47.08
2023-04-27T12:50:12.695Z,45.14
2023-04-27T12:51:12.644Z,45.02
2023-04-27T12:52:12.643Z,43.87
2023-04-27T12:53:12.649Z,44.96
2023-04-27T12:54:12.842Z,45.18